Terminal Aerodrome Forecast
Issued by NWS Mt. Holly, NJ

Home | Current Version | Previous Version | Text Only | Print | Product List | Glossary On
Versions: 1 2 3 4 5 6 7 8 9 10 11 12 13 14 15 16 17 18 19 20
494
FTUS41 KPHI 200003 AAA
TAFRDG
TAF AMD
KRDG 200003Z 2000/2024 23004KT P6SM BKN040
      TEMPO 2000/2002 VRB20G40KT 3SM -TSRA BKN040CB
     FM200400 VRB03KT P6SM SCT100=

USA.gov is the U.S. government's official web portal to all federal, state and local government web resources and services.